Time;durP1;ratioP1;P1;durP2;ratioP2;P2;SDS_P1;SDS_P2;PMS_P1;PMS_P2;Temp;Humidity;BMP_temperature;BMP_pressure;BME280_temperature;BME280_humidity;BME280_pressure;Samples;Min_cycle;Max_cycle;Signal;HPM_P1;HPM_P2
2022/09/10 00:01:31;;;;;;;13.65;10.45;;;15.10;99.90;;;;;;5012149;28;20055;-76
2022/09/10 00:03:58;;;;;;;14.80;10.27;;;15.10;99.90;;;;;;5028862;28;20052;-78
2022/09/10 00:06:26;;;;;;;14.30;9.65;;;15.10;99.90;;;;;;5011771;28;20060;-78
2022/09/10 00:08:56;;;;;;;16.00;11.27;;;15.10;99.90;;;;;;5029381;28;20084;-77
2022/09/10 00:11:22;;;;;;;20.80;11.38;;;15.10;99.90;;;;;;5029294;28;20049;-76
2022/09/10 00:13:48;;;;;;;19.05;12.18;;;15.30;99.90;;;;;;5028941;28;20117;-79
2022/09/10 00:16:17;;;;;;;18.65;11.77;;;15.20;99.90;;;;;;5029175;28;20119;-79
2022/09/10 00:18:44;;;;;;;16.35;11.70;;;15.20;99.90;;;;;;5032590;28;20444;-79
2022/09/10 00:21:12;;;;;;;18.55;12.02;;;15.20;99.90;;;;;;5033420;28;20059;-79
2022/09/10 00:23:38;;;;;;;15.10;11.73;;;15.20;99.90;;;;;;5032864;28;20096;-78
2022/09/10 00:26:17;;;;;;;16.45;12.38;;;15.20;99.90;;;;;;5033367;28;20107;-78
2022/09/10 00:28:43;;;;;;;14.77;12.40;;;15.20;99.90;;;;;;5032944;28;20041;-79
2022/09/10 00:31:09;;;;;;;19.85;13.27;;;15.30;99.90;;;;;;5032653;28;20056;-80
2022/09/10 00:33:35;;;;;;;18.77;12.20;;;15.20;99.90;;;;;;5032826;28;20092;-78
2022/09/10 00:36:04;;;;;;;17.58;12.65;;;15.20;99.90;;;;;;5031865;28;20089;-78
2022/09/10 00:38:31;;;;;;;17.25;12.70;;;15.30;99.90;;;;;;5032833;28;20057;-77
2022/09/10 00:41:07;;;;;;;16.48;13.07;;;15.30;99.90;;;;;;5032603;28;20118;-78
2022/09/10 00:43:54;;;;;;;15.63;12.48;;;15.20;99.90;;;;;;5032717;28;20124;-79
2022/09/10 00:46:36;;;;;;;19.17;12.43;;;15.20;99.90;;;;;;5032280;28;20141;-76
2022/09/10 00:49:13;;;;;;;20.27;12.50;;;15.30;99.90;;;;;;5031480;28;20057;-78
2022/09/10 00:51:39;;;;;;;16.13;13.32;;;15.30;99.90;;;;;;5030581;28;20052;-80
2022/09/10 00:54:05;;;;;;;18.58;14.02;;;15.20;99.90;;;;;;5032333;28;20580;-80
2022/09/10 00:56:33;;;;;;;18.05;14.35;;;15.20;99.90;;;;;;5032663;28;20049;-80
2022/09/10 00:59:00;;;;;;;24.75;14.57;;;15.30;99.90;;;;;;5032366;28;20045;-81
2022/09/10 01:01:26;;;;;;;19.17;13.98;;;15.30;99.90;;;;;;5032341;28;20054;-79
2022/09/10 01:03:53;;;;;;;21.88;15.25;;;15.30;99.90;;;;;;5030300;28;20065;-80
2022/09/10 01:06:18;;;;;;;19.52;14.32;;;15.30;99.90;;;;;;5029837;28;20129;-80
2022/09/10 01:08:44;;;;;;;19.25;13.85;;;15.30;99.90;;;;;;5030931;28;20144;-80
2022/09/10 01:11:36;;;;;;;20.27;14.25;;;15.30;99.90;;;;;;5030808;28;20519;-79
2022/09/10 01:14:11;;;;;;;21.65;15.27;;;15.30;99.90;;;;;;5013945;28;20136;-80
2022/09/10 01:16:36;;;;;;;;;;;15.30;99.90;;;;;;5031119;28;20057;-79
2022/09/10 01:19:21;;;;;;;19.77;14.60;;;15.30;99.90;;;;;;5030840;28;19941;-79
2022/09/10 01:22:11;;;;;;;22.27;15.60;;;15.30;99.90;;;;;;5030376;28;20056;-79
2022/09/10 01:24:59;;;;;;;23.02;16.02;;;15.30;99.90;;;;;;5030365;28;20055;-79
2022/09/10 01:27:44;;;;;;;23.90;16.80;;;15.30;99.90;;;;;;5030942;28;20191;-78
2022/09/10 01:30:17;;;;;;;23.52;15.82;;;15.30;99.90;;;;;;5031573;28;20049;-78
2022/09/10 01:32:57;;;;;;;23.52;18.33;;;15.30;99.90;;;;;;5030252;28;20091;-79
2022/09/10 01:35:27;;;;;;;24.90;17.55;;;15.30;99.90;;;;;;5031125;28;20135;-77
2022/09/10 01:38:03;;;;;;;26.73;18.10;;;15.40;99.90;;;;;;5031361;28;20049;-79
2022/09/10 01:40:30;;;;;;;26.52;17.80;;;15.30;99.90;;;;;;5031478;28;20052;-78
2022/09/10 01:43:07;;;;;;;25.38;18.77;;;15.30;99.90;;;;;;5031771;28;20052;-76
2022/09/10 01:46:03;;;;;;;26.88;18.88;;;15.30;99.90;;;;;;5031457;28;20051;-78
2022/09/10 01:49:01;;;;;;;28.67;19.75;;;15.30;99.90;;;;;;4970054;28;20105;-78
2022/09/10 01:51:29;;;;;;;27.35;20.20;;;15.30;99.90;;;;;;4969815;28;20577;-79
2022/09/10 01:54:24;;;;;;;32.45;21.33;;;15.30;99.90;;;;;;4954045;28;20055;-79
2022/09/10 01:57:19;;;;;;;26.67;21.13;;;15.30;99.90;;;;;;4969955;28;20097;-81
2022/09/10 01:59:56;;;;;;;30.33;21.50;;;15.30;99.90;;;;;;4913019;29;20340;-78
2022/09/10 02:02:28;;;;;;;30.83;20.85;;;15.30;99.90;;;;;;4895910;29;20063;-80
2022/09/10 02:04:56;;;;;;;26.52;21.55;;;15.40;99.90;;;;;;4896499;29;20163;-79
2022/09/10 02:07:25;;;;;;;31.63;21.80;;;15.40;99.90;;;;;;4912603;29;20466;-81
2022/09/10 02:09:52;;;;;;;25.63;20.65;;;15.20;99.90;;;;;;4912746;29;20126;-79
2022/09/10 02:12:20;;;;;;;26.40;20.27;;;15.30;99.90;;;;;;4912843;29;20045;-80
2022/09/10 02:14:54;;;;;;;27.75;21.77;;;15.30;99.90;;;;;;4919196;29;20512;-77
2022/09/10 02:17:23;;;;;;;27.27;21.90;;;15.20;99.90;;;;;;4912573;29;20067;-77
2022/09/10 02:19:51;;;;;;;28.00;19.67;;;15.20;99.90;;;;;;4912777;29;20142;-81
2022/09/10 02:22:18;;;;;;;25.90;20.13;;;15.20;99.90;;;;;;4911816;29;20562;-81
2022/09/10 02:24:44;;;;;;;28.27;20.65;;;15.30;99.90;;;;;;4906181;29;20058;-78
2022/09/10 02:27:13;;;;;;;28.85;21.48;;;15.20;99.90;;;;;;4933796;28;20494;-80
2022/09/10 02:29:39;;;;;;;30.73;21.63;;;15.30;99.90;;;;;;4930902;29;20397;-79
2022/09/10 02:32:07;;;;;;;29.05;21.92;;;15.20;99.90;;;;;;4943957;29;20117;-78
2022/09/10 02:34:33;;;;;;;31.90;22.38;;;15.30;99.90;;;;;;4949942;29;20043;-79
2022/09/10 02:36:59;;;;;;;30.23;21.30;;;15.20;99.90;;;;;;4997063;28;20116;-80
2022/09/10 02:39:24;;;;;;;29.00;21.38;;;15.30;99.90;;;;;;5030382;28;20057;-79
2022/09/10 02:41:50;;;;;;;28.58;21.67;;;15.30;99.90;;;;;;5028325;28;20092;-80
2022/09/10 02:44:16;;;;;;;28.48;21.20;;;15.30;99.90;;;;;;5029119;28;20400;-79
2022/09/10 02:46:42;;;;;;;30.65;22.35;;;15.30;99.90;;;;;;5029576;28;20049;-78
2022/09/10 02:49:08;;;;;;;30.67;22.10;;;15.50;99.90;;;;;;5028522;28;20042;-77
2022/09/10 02:51:35;;;;;;;29.60;22.77;;;15.30;99.90;;;;;;5025706;28;20060;-78
2022/09/10 02:54:01;;;;;;;25.52;21.67;;;15.30;99.90;;;;;;5030180;28;20088;-79
2022/09/10 02:56:27;;;;;;;29.90;22.27;;;15.30;99.90;;;;;;5030401;28;20073;-78
2022/09/10 02:58:53;;;;;;;32.20;22.95;;;15.20;99.90;;;;;;5029971;28;20091;-80
2022/09/10 03:01:20;;;;;;;31.75;23.92;;;15.30;99.90;;;;;;5017025;28;20042;-78
2022/09/10 03:03:53;;;;;;;30.77;23.45;;;15.20;99.90;;;;;;5023322;28;20046;-79
2022/09/10 03:06:20;;;;;;;29.42;23.83;;;15.30;99.90;;;;;;5028171;28;20092;-78
2022/09/10 03:08:48;;;;;;;33.08;24.25;;;15.20;99.90;;;;;;5025510;28;20050;-79
2022/09/10 03:11:15;;;;;;;33.35;24.10;;;15.20;99.90;;;;;;5008690;28;20057;-79
2022/09/10 03:13:44;;;;;;;34.22;25.40;;;15.20;99.90;;;;;;5010324;28;20152;-79
2022/09/10 03:16:12;;;;;;;31.13;23.38;;;15.20;99.90;;;;;;5018526;28;20064;-80
2022/09/10 03:18:41;;;;;;;32.85;24.23;;;15.30;99.90;;;;;;5029914;28;20116;-77
2022/09/10 03:21:15;;;;;;;39.38;27.92;;;15.20;99.90;;;;;;5028485;28;20119;-78
2022/09/10 03:23:43;;;;;;;38.67;26.30;;;15.20;99.90;;;;;;5029631;28;20049;-80
2022/09/10 03:26:09;;;;;;;38.15;26.10;;;15.20;99.90;;;;;;5029635;28;20045;-79
2022/09/10 03:28:36;;;;;;;34.50;25.88;;;15.20;99.90;;;;;;5028498;28;20132;-79
2022/09/10 03:31:05;;;;;;;39.47;26.92;;;15.20;99.90;;;;;;5024232;28;20132;-79
2022/09/10 03:33:32;;;;;;;36.85;27.13;;;15.20;99.90;;;;;;5029949;28;20060;-79
2022/09/10 03:35:57;;;;;;;37.47;26.08;;;15.20;99.90;;;;;;5026536;28;20447;-80
2022/09/10 03:38:24;;;;;;;35.45;26.27;;;15.30;99.90;;;;;;5013676;28;20049;-80
2022/09/10 03:40:51;;;;;;;38.53;27.33;;;15.30;99.90;;;;;;5011575;28;20037;-77
2022/09/10 03:43:18;;;;;;;36.92;26.10;;;15.20;99.90;;;;;;5029758;28;20095;-78
2022/09/10 03:45:44;;;;;;;41.10;27.38;;;15.10;99.90;;;;;;5029546;28;20045;-80
2022/09/10 03:48:10;;;;;;;36.92;25.52;;;15.20;99.90;;;;;;5029440;28;20179;-78
2022/09/10 03:50:35;;;;;;;38.25;26.92;;;15.20;99.90;;;;;;5029598;28;20397;-80
2022/09/10 03:53:02;;;;;;;36.47;25.58;;;15.40;99.90;;;;;;5027748;28;20053;-80
2022/09/10 03:55:29;;;;;;;34.50;25.17;;;15.20;99.90;;;;;;5029617;28;20065;-80
2022/09/10 03:57:56;;;;;;;39.85;27.20;;;15.10;99.90;;;;;;5029748;28;20053;-81
2022/09/10 04:00:21;;;;;;;37.85;26.30;;;15.20;99.90;;;;;;5029339;28;20050;-80
2022/09/10 04:02:47;;;;;;;35.80;25.77;;;15.40;99.90;;;;;;5014420;28;20068;-80
2022/09/10 04:05:13;;;;;;;35.03;26.20;;;15.30;99.90;;;;;;5011589;28;20049;-81
2022/09/10 04:07:38;;;;;;;36.63;24.98;;;15.20;99.90;;;;;;4993498;28;20401;-77
2022/09/10 04:10:05;;;;;;;38.67;26.45;;;15.40;99.90;;;;;;5009769;28;20046;-80
2022/09/10 04:12:31;;;;;;;37.28;26.20;;;15.10;99.90;;;;;;5011058;28;20058;-80
2022/09/10 04:14:57;;;;;;;40.35;27.05;;;15.10;99.90;;;;;;5009015;28;20948;-80
2022/09/10 04:17:24;;;;;;;38.13;26.27;;;15.30;99.90;;;;;;5009749;28;20073;-81
2022/09/10 04:19:49;;;;;;;36.40;26.10;;;15.10;99.90;;;;;;5021578;28;20057;-79
2022/09/10 04:22:15;;;;;;;39.92;27.13;;;15.10;99.90;;;;;;5027745;28;20226;-80
2022/09/10 04:24:41;;;;;;;36.28;25.23;;;15.10;99.90;;;;;;5028701;28;20041;-80
2022/09/10 04:27:06;;;;;;;39.60;26.27;;;15.10;99.90;;;;;;5029431;28;20046;-80
2022/09/10 04:29:32;;;;;;;40.00;26.95;;;15.10;99.90;;;;;;5029180;28;20081;-81
2022/09/10 04:31:58;;;;;;;39.22;26.15;;;15.10;99.90;;;;;;5028910;28;20049;-80
2022/09/10 04:34:23;;;;;;;37.80;26.55;;;15.10;99.90;;;;;;5024353;28;20582;-81
2022/09/10 04:36:49;;;;;;;34.08;25.08;;;15.10;99.90;;;;;;5007558;28;20059;-81
2022/09/10 04:39:15;;;;;;;33.97;24.83;;;15.10;99.90;;;;;;5008227;28;20382;-80
2022/09/10 04:41:41;;;;;;;39.78;26.90;;;15.10;99.90;;;;;;5009117;28;20045;-79
2022/09/10 04:44:07;;;;;;;33.75;24.20;;;15.20;99.90;;;;;;5008173;28;20128;-80
2022/09/10 04:46:33;;;;;;;33.60;25.13;;;15.10;99.90;;;;;;5029116;28;20140;-80
2022/09/10 04:48:59;;;;;;;35.08;23.00;;;15.10;99.90;;;;;;5028792;28;20133;-80
2022/09/10 04:51:25;;;;;;;39.15;24.42;;;15.10;99.90;;;;;;5028519;28;20136;-81
2022/09/10 04:53:51;;;;;;;33.00;23.83;;;15.10;99.90;;;;;;5028482;28;20081;-80
2022/09/10 04:56:18;;;;;;;32.83;23.25;;;15.20;99.90;;;;;;5026636;28;20045;-80
2022/09/10 04:58:45;;;;;;;31.20;23.08;;;15.10;99.90;;;;;;5028652;28;20081;-80
2022/09/10 05:01:10;;;;;;;25.90;21.30;;;15.10;99.90;;;;;;5028321;28;20041;-79
2022/09/10 05:03:36;;;;;;;32.58;23.52;;;15.20;99.90;;;;;;5029000;28;20111;-79
2022/09/10 05:06:03;;;;;;;29.90;22.35;;;15.10;99.90;;;;;;5030394;28;20057;-80
2022/09/10 05:08:30;;;;;;;28.85;21.13;;;15.10;99.90;;;;;;5012616;28;20073;-79
2022/09/10 05:10:55;;;;;;;33.67;22.73;;;15.20;99.90;;;;;;5012393;28;20548;-78
2022/09/10 05:13:23;;;;;;;35.22;23.85;;;15.00;99.90;;;;;;5017304;28;20073;-80
2022/09/10 05:15:49;;;;;;;39.38;21.90;;;15.10;99.90;;;;;;5030714;28;20064;-79
2022/09/10 05:18:15;;;;;;;27.25;20.80;;;15.10;99.90;;;;;;5030314;28;20541;-79
2022/09/10 05:20:43;;;;;;;29.48;21.10;;;15.10;99.90;;;;;;5031998;28;20132;-81
2022/09/10 05:23:09;;;;;;;28.63;22.40;;;15.10;99.90;;;;;;5031912;28;20046;-79
2022/09/10 05:25:36;;;;;;;27.40;19.95;;;15.10;99.90;;;;;;5032060;28;20396;-80
2022/09/10 05:28:04;;;;;;;28.27;20.95;;;15.10;99.90;;;;;;5031422;28;20072;-80
2022/09/10 05:30:31;;;;;;;30.70;20.05;;;15.20;99.90;;;;;;5031640;28;20045;-78
2022/09/10 05:33:00;;;;;;;28.50;20.92;;;15.20;99.90;;;;;;5016822;28;20136;-80
2022/09/10 05:35:27;;;;;;;24.17;19.45;;;15.20;99.90;;;;;;5028297;28;20140;-80
2022/09/10 05:37:56;;;;;;;30.38;20.10;;;15.20;99.90;;;;;;5031474;28;20500;-80
2022/09/10 05:40:21;;;;;;;26.15;18.48;;;15.20;99.90;;;;;;5031887;28;20133;-80
2022/09/10 05:42:48;;;;;;;27.10;18.90;;;15.20;99.90;;;;;;5031951;28;20120;-80
2022/09/10 05:45:14;;;;;;;25.58;19.42;;;15.20;99.90;;;;;;5032148;28;20045;-80
2022/09/10 05:47:40;;;;;;;25.55;19.38;;;15.20;99.90;;;;;;5030563;28;20050;-80
2022/09/10 05:50:06;;;;;;;23.77;19.08;;;15.20;99.90;;;;;;5030705;28;20068;-80
2022/09/10 05:52:31;;;;;;;30.65;19.77;;;15.20;99.90;;;;;;5031887;28;20080;-79
2022/09/10 05:54:58;;;;;;;28.23;19.35;;;15.30;99.90;;;;;;5031775;28;20080;-79
2022/09/10 05:57:24;;;;;;;25.77;18.77;;;15.30;99.90;;;;;;5030201;28;20041;-80
2022/09/10 05:59:49;;;;;;;28.83;19.38;;;15.30;99.90;;;;;;5030227;28;20045;-81
2022/09/10 06:02:18;;;;;;;23.20;18.33;;;15.30;99.90;;;;;;5029930;28;20401;-80
2022/09/10 06:04:44;;;;;;;25.83;19.25;;;15.30;99.90;;;;;;5031680;28;20052;-80
2022/09/10 06:07:09;;;;;;;27.75;19.15;;;15.30;99.90;;;;;;5031327;28;20046;-80
2022/09/10 06:09:35;;;;;;;24.48;18.40;;;15.30;99.90;;;;;;5031323;28;20400;-79
2022/09/10 06:12:01;;;;;;;29.33;20.45;;;15.40;99.90;;;;;;5029967;28;20060;-80
2022/09/10 06:14:27;;;;;;;26.08;19.08;;;15.30;99.90;;;;;;5028827;28;20389;-81
2022/09/10 06:16:53;;;;;;;26.65;18.20;;;15.40;99.90;;;;;;5030027;28;20052;-81
2022/09/10 06:19:20;;;;;;;27.52;18.92;;;15.40;99.90;;;;;;5031155;28;20381;-81
2022/09/10 06:21:45;;;;;;;25.50;19.15;;;15.40;99.90;;;;;;5029514;28;20052;-81
2022/09/10 06:24:12;;;;;;;26.50;18.95;;;15.40;99.90;;;;;;5029767;28;20540;-82
2022/09/10 06:26:38;;;;;;;28.95;19.05;;;15.50;99.90;;;;;;5031339;28;20041;-81
2022/09/10 06:29:04;;;;;;;29.63;18.90;;;15.50;99.90;;;;;;5029480;28;20067;-81
2022/09/10 06:31:29;;;;;;;26.67;18.15;;;15.50;99.90;;;;;;5030756;28;20507;-79
2022/09/10 06:33:55;;;;;;;26.23;18.83;;;15.50;99.90;;;;;;5028303;28;20518;-81
2022/09/10 06:36:21;;;;;;;26.90;18.80;;;15.50;99.90;;;;;;5030287;28;20033;-81
2022/09/10 06:38:48;;;;;;;25.92;18.10;;;15.50;99.90;;;;;;5029420;28;20488;-81
2022/09/10 06:41:15;;;;;;;31.20;19.73;;;15.60;99.90;;;;;;5030525;28;20144;-80
2022/09/10 06:43:41;;;;;;;23.08;17.95;;;15.60;99.90;;;;;;5016997;28;20112;-80
2022/09/10 06:46:13;;;;;;;28.65;17.80;;;15.60;99.90;;;;;;5010981;28;20045;-81
2022/09/10 06:48:40;;;;;;;27.77;19.02;;;15.70;99.90;;;;;;5010995;28;20145;-82
2022/09/10 06:51:07;;;;;;;25.42;18.42;;;15.70;99.90;;;;;;5009532;28;20054;-80
2022/09/10 06:53:34;;;;;;;26.85;18.63;;;15.70;99.90;;;;;;5019388;28;20132;-83
2022/09/10 06:56:00;;;;;;;28.83;19.52;;;15.70;99.90;;;;;;5029970;28;20103;-81
2022/09/10 06:58:29;;;;;;;27.42;18.15;;;15.80;99.90;;;;;;5030444;28;20041;-81
2022/09/10 07:00:54;;;;;;;25.27;19.13;;;15.80;99.90;;;;;;5025659;28;20046;-82
2022/09/10 07:03:21;;;;;;;28.52;18.50;;;15.80;99.90;;;;;;5020577;28;20376;-81
2022/09/10 07:05:47;;;;;;;28.27;19.23;;;15.90;99.90;;;;;;5023951;28;20045;-82
2022/09/10 07:08:16;;;;;;;28.10;19.50;;;15.90;99.90;;;;;;5062143;28;20053;-80
2022/09/10 07:10:43;;;;;;;27.65;18.70;;;15.90;99.90;;;;;;5012207;28;20052;-82
2022/09/10 07:13:11;;;;;;;30.17;19.10;;;15.90;99.90;;;;;;5046632;28;20076;-81
2022/09/10 07:15:44;;;;;;;29.83;18.75;;;16.00;99.90;;;;;;5029950;28;20049;-82
2022/09/10 07:18:13;;;;;;;30.42;19.98;;;16.00;99.90;;;;;;5030291;28;20038;-82
2022/09/10 07:20:40;;;;;;;34.40;19.58;;;16.00;99.90;;;;;;5029848;28;20088;-81
2022/09/10 07:23:05;;;;;;;28.58;19.70;;;16.00;99.90;;;;;;5027309;28;20078;-83
2022/09/10 07:25:33;;;;;;;32.33;19.23;;;16.10;99.90;;;;;;5028604;28;20049;-81
2022/09/10 07:28:00;;;;;;;33.10;20.65;;;16.10;99.90;;;;;;5029559;28;20081;-83
2022/09/10 07:30:27;;;;;;;32.92;20.27;;;16.10;99.90;;;;;;5030028;28;20107;-81
2022/09/10 07:32:53;;;;;;;30.80;19.35;;;16.10;99.90;;;;;;5029685;28;20049;-82
2022/09/10 07:35:18;;;;;;;31.67;18.77;;;16.00;99.90;;;;;;5029541;28;20048;-83
2022/09/10 07:37:45;;;;;;;30.65;19.58;;;16.10;99.90;;;;;;5030128;28;20076;-81
2022/09/10 07:40:11;;;;;;;36.30;19.77;;;16.10;99.90;;;;;;5028769;28;20045;-82
2022/09/10 07:42:37;;;;;;;28.02;18.83;;;16.10;99.90;;;;;;5029699;28;20069;-81
2022/09/10 07:45:04;;;;;;;33.65;19.50;;;16.30;99.90;;;;;;5029349;28;20077;-83
2022/09/10 07:47:31;;;;;;;37.53;20.70;;;16.20;99.90;;;;;;5028610;28;20416;-83
2022/09/10 07:49:57;;;;;;;28.23;19.30;;;16.20;99.90;;;;;;5012018;28;20133;-81
2022/09/10 07:52:22;;;;;;;37.58;20.30;;;16.40;99.90;;;;;;5028871;28;20556;-83
2022/09/10 07:54:48;;;;;;;33.70;19.60;;;16.30;99.90;;;;;;5029804;28;20042;-81
2022/09/10 07:57:14;;;;;;;28.15;18.70;;;16.30;99.90;;;;;;5030077;28;20048;-83
2022/09/10 07:59:40;;;;;;;36.17;20.15;;;16.40;99.90;;;;;;5029304;28;20058;-83
2022/09/10 08:02:05;;;;;;;33.35;18.65;;;16.30;99.90;;;;;;5029279;28;20054;-82
2022/09/10 08:04:31;;;;;;;30.75;19.40;;;16.30;99.90;;;;;;5028451;28;20060;-83
2022/09/10 08:06:57;;;;;;;25.58;17.77;;;16.40;99.90;;;;;;5025619;28;20045;-83
2022/09/10 08:09:24;;;;;;;33.00;19.10;;;16.40;99.90;;;;;;5015006;28;20060;-84
2022/09/10 08:11:50;;;;;;;29.45;18.83;;;16.40;99.90;;;;;;5019818;28;20404;-85
2022/09/10 08:14:15;;;;;;;31.00;18.15;;;16.50;99.90;;;;;;5015211;28;20056;-85
2022/09/10 08:16:41;;;;;;;32.22;18.98;;;16.60;99.90;;;;;;5018602;28;20065;-83
2022/09/10 08:19:09;;;;;;;39.95;19.10;;;16.50;99.90;;;;;;5028160;28;20377;-83
2022/09/10 08:21:35;;;;;;;34.58;18.60;;;16.50;99.90;;;;;;5027921;28;20042;-82
2022/09/10 08:24:01;;;;;;;37.55;19.55;;;16.60;99.90;;;;;;5025241;28;20049;-82
2022/09/10 08:26:28;;;;;;;31.90;18.27;;;16.50;99.90;;;;;;5028421;28;20809;-83
2022/09/10 08:28:55;;;;;;;33.28;19.10;;;16.60;99.90;;;;;;5029539;28;20191;-84
2022/09/10 08:31:21;;;;;;;33.63;19.15;;;16.50;99.90;;;;;;5029085;28;20511;-82
2022/09/10 08:33:49;;;;;;;30.00;17.92;;;16.60;99.90;;;;;;5029184;28;20049;-82
2022/09/10 08:36:16;;;;;;;31.27;18.85;;;16.60;99.90;;;;;;5011184;28;20493;-84
2022/09/10 08:38:43;;;;;;;31.17;19.05;;;16.60;99.90;;;;;;5029912;28;20085;-84
2022/09/10 08:41:43;;;;;;;27.10;18.63;;;16.60;99.90;;;;;;5033359;28;20514;-84
2022/09/10 08:44:08;;;;;;;31.67;17.95;;;16.60;99.90;;;;;;4971698;28;20210;-84
2022/09/10 08:46:44;;;;;;;34.15;18.65;;;16.70;99.90;;;;;;4971309;28;20055;-84
2022/09/10 08:49:44;;;;;;;30.63;18.58;;;16.70;99.90;;;;;;4971492;28;20051;-84
2022/09/10 08:52:22;;;;;;;34.40;17.88;;;16.70;99.90;;;;;;4955510;28;20046;-87
2022/09/10 08:55:13;;;;;;;30.02;17.25;;;16.80;99.90;;;;;;4971355;28;20094;-87
2022/09/10 08:57:46;;;;;;;28.60;17.38;;;16.90;99.90;;;;;;4957330;28;20466;-87
2022/09/10 09:00:20;;;;;;;30.42;17.70;;;16.90;99.90;;;;;;4954041;28;20052;-87
2022/09/10 09:03:04;;;;;;;32.50;17.92;;;16.90;99.90;;;;;;4971106;28;20141;-90
2022/09/10 09:05:47;;;;;;;26.02;16.77;;;17.00;99.90;;;;;;4955692;28;20055;-89
2022/09/10 09:08:16;;;;;;;29.65;17.42;;;17.00;99.90;;;;;;4964072;28;20059;-87
2022/09/10 09:11:19;;;;;;;25.17;16.17;;;17.00;99.90;;;;;;4936615;29;20553;-87
2022/09/10 09:14:15;;;;;;;24.92;16.23;;;17.10;99.90;;;;;;4953682;28;20066;-85
2022/09/10 09:16:59;;;;;;;25.42;15.68;;;17.10;99.90;;;;;;4942200;28;20515;-84
2022/09/10 09:19:44;;;;;;;25.20;15.90;;;17.10;99.90;;;;;;4936930;29;20133;-82
2022/09/10 09:22:26;;;;;;;29.08;15.73;;;17.10;99.90;;;;;;5010494;28;20144;-87
2022/09/10 09:25:19;;;;;;;21.90;15.20;;;17.20;99.90;;;;;;4995109;28;20472;-89
2022/09/10 09:27:47;;;;;;;25.02;15.10;;;17.20;99.90;;;;;;4994607;28;20197;-86
2022/09/10 09:30:22;;;;;;;24.30;14.40;;;17.20;99.90;;;;;;5010314;28;20065;-85
2022/09/10 09:32:48;;;;;;;25.42;14.80;;;17.20;99.90;;;;;;4994217;28;20049;-86
2022/09/10 09:35:29;;;;;;;24.70;14.95;;;17.30;99.90;;;;;;5010776;28;20112;-83
2022/09/10 09:38:19;;;;;;;25.13;16.33;;;17.30;99.90;;;;;;4994245;28;20050;-85
2022/09/10 09:40:56;;;;;;;30.90;17.50;;;17.30;99.90;;;;;;5009177;28;20513;-91
2022/09/10 09:43:43;;;;;;;22.50;15.75;;;17.30;99.90;;;;;;5009856;28;20045;-86
2022/09/10 09:46:16;;;;;;;22.00;16.05;;;17.40;99.90;;;;;;5000460;28;20054;-86
2022/09/10 09:48:42;;;;;;;26.30;16.25;;;17.50;99.90;;;;;;4993448;28;20122;-83
2022/09/10 09:51:12;;;;;;;31.98;17.63;;;17.60;99.90;;;;;;5009987;28;20057;-84
2022/09/10 09:53:39;;;;;;;28.30;16.42;;;17.60;99.90;;;;;;5013634;28;20501;-80
2022/09/10 09:56:11;;;;;;;28.92;17.23;;;17.70;99.90;;;;;;5031987;28;20120;-88
2022/09/10 09:58:38;;;;;;;22.13;15.55;;;17.70;99.90;;;;;;5029913;28;20175;-90
2022/09/10 10:01:08;;;;;;;24.80;16.23;;;17.80;99.90;;;;;;5031801;28;20489;-81
2022/09/10 10:03:53;;;;;;;24.88;15.55;;;17.80;99.90;;;;;;5014064;28;20057;-86
2022/09/10 10:06:23;;;;;;;28.35;14.50;;;17.90;99.90;;;;;;5013827;28;20051;-86
2022/09/10 10:09:14;;;;;;;33.38;15.88;;;17.90;99.90;;;;;;5031867;28;20045;-87
2022/09/10 10:11:41;;;;;;;27.35;16.48;;;17.90;99.90;;;;;;5010247;28;20057;-84
2022/09/10 10:14:13;;;;;;;22.25;15.30;;;17.90;99.90;;;;;;5031747;28;20044;-88
2022/09/10 10:16:38;;;;;;;26.17;15.63;;;17.90;99.90;;;;;;5030030;28;20048;-82
2022/09/10 10:19:33;;;;;;;27.60;15.60;;;18.00;99.90;;;;;;5029186;28;20607;-85
2022/09/10 10:22:17;;;;;;;21.15;14.75;;;18.00;99.90;;;;;;5029870;28;20076;-85
2022/09/10 10:24:44;;;;;;;21.02;14.63;;;18.10;99.90;;;;;;5008242;28;20050;-83
2022/09/10 10:27:25;;;;;;;23.50;14.80;;;18.10;99.90;;;;;;5025634;28;20055;-85
2022/09/10 10:30:02;;;;;;;21.00;13.93;;;18.20;99.90;;;;;;5025774;28;20046;-89
2022/09/10 10:32:33;;;;;;;19.73;14.10;;;18.20;99.90;;;;;;5012084;28;20065;-84
2022/09/10 10:35:22;;;;;;;23.17;13.60;;;18.30;99.90;;;;;;5011637;28;20050;-90
2022/09/10 10:37:55;;;;;;;23.10;13.45;;;18.30;99.90;;;;;;5012044;28;20060;-83
2022/09/10 10:40:41;;;;;;;17.52;12.38;;;18.30;99.90;;;;;;5031227;28;20087;-85
2022/09/10 10:43:42;;;;;;;26.48;13.07;;;18.30;99.90;;;;;;5021445;28;20485;-85
2022/09/10 10:46:23;;;;;;;21.13;12.75;;;18.30;99.90;;;;;;4942798;28;20097;-84
2022/09/10 10:49:03;;;;;;;23.77;12.18;;;18.30;99.90;;;;;;4969592;28;20058;-87
2022/09/10 10:51:52;;;;;;;19.73;12.18;;;18.40;99.90;;;;;;4949431;28;20062;-85
2022/09/10 10:54:24;;;;;;;16.52;11.95;;;18.40;99.90;;;;;;4950194;29;21052;-87
2022/09/10 10:57:01;;;;;;;15.90;11.32;;;18.50;99.90;;;;;;4950326;29;20491;-85
2022/09/10 11:00:00;;;;;;;17.52;11.85;;;18.60;99.90;;;;;;4950403;29;20122;-85
2022/09/10 11:02:48;;;;;;;21.30;11.52;;;18.70;99.90;;;;;;4934721;29;20182;-88
2022/09/10 11:05:30;;;;;;;14.88;10.48;;;18.70;99.90;;;;;;4950583;29;20059;-84
2022/09/10 11:08:02;;;;;;;20.95;11.30;;;18.90;99.90;;;;;;4934579;29;20047;-87
2022/09/10 11:10:36;;;;;;;16.02;10.07;;;19.00;99.90;;;;;;4950357;29;20063;-86
2022/09/10 11:13:37;;;;;;;15.40;10.80;;;19.00;99.90;;;;;;4965676;28;20062;-85
2022/09/10 11:16:08;;;;;;;21.00;10.05;;;19.10;99.90;;;;;;4964408;28;20165;-82
2022/09/10 11:18:42;;;;;;;16.73;10.05;;;19.20;99.90;;;;;;4969394;28;20061;-88
2022/09/10 11:21:21;;;;;;;14.88;10.38;;;19.30;99.90;;;;;;4968853;28;20047;-80
2022/09/10 11:24:05;;;;;;;18.00;11.57;;;19.30;99.90;;;;;;4994325;28;21014;-81
2022/09/10 11:26:37;;;;;;;18.42;10.63;;;19.40;99.90;;;;;;5023028;28;20657;-84
2022/09/10 11:29:12;;;;;;;17.75;11.00;;;19.50;99.90;;;;;;5030517;28;20041;-84
2022/09/10 11:31:49;;;;;;;20.63;10.85;;;19.40;99.90;;;;;;5013052;28;20045;-86
2022/09/10 11:34:56;;;;;;;15.93;10.30;;;19.40;99.90;;;;;;5029906;28;20095;-89
2022/09/10 11:37:31;;;;;;;22.77;11.40;;;19.50;99.90;;;;;;5028604;28;20045;-86
2022/09/10 11:39:59;;;;;;;;;;;19.50;99.90;;;;;;5030929;28;20481;-87
2022/09/10 11:42:43;;;;;;;15.52;10.10;;;19.50;99.90;;;;;;5030857;28;19925;-89
2022/09/10 11:45:27;;;;;;;18.92;11.13;;;19.60;99.90;;;;;;5011086;28;20037;-86
2022/09/10 11:48:00;;;;;;;17.70;10.98;;;19.70;99.90;;;;;;5009467;28;20046;-89
2022/09/10 11:50:43;;;;;;;16.60;9.60;;;19.60;99.90;;;;;;5010481;28;20191;-88
2022/09/10 11:53:14;;;;;;;18.70;11.13;;;19.70;99.90;;;;;;5009261;28;20425;-87
2022/09/10 11:56:03;;;;;;;15.30;11.15;;;19.80;99.90;;;;;;5028703;28;20049;-94
2022/09/10 11:58:30;;;;;;;13.85;9.98;;;19.80;99.90;;;;;;5030079;28;20041;-86
2022/09/10 12:01:09;;;;;;;17.80;11.00;;;19.90;99.90;;;;;;5012486;28;20558;-87
2022/09/10 12:04:08;;;;;;;20.15;10.80;;;20.10;99.90;;;;;;5029784;28;20041;-84
2022/09/10 12:06:57;;;;;;;14.07;10.27;;;20.20;99.90;;;;;;5028729;28;20128;-90
2022/09/10 12:09:26;;;;;;;18.25;10.75;;;20.30;99.90;;;;;;5029796;28;20060;-90
2022/09/10 12:12:07;;;;;;;16.40;10.70;;;20.50;99.90;;;;;;5028337;28;20060;-85
2022/09/10 12:14:38;;;;;;;16.10;10.55;;;20.60;99.90;;;;;;5033423;28;20172;-90
2022/09/10 12:17:23;;;;;;;17.17;10.73;;;20.60;99.90;;;;;;5032709;28;20049;-87
2022/09/10 12:19:53;;;;;;;14.25;9.50;;;20.70;99.90;;;;;;5032496;28;20049;-87
2022/09/10 12:22:28;;;;;;;17.58;9.73;;;20.70;99.90;;;;;;5033848;28;20415;-86
2022/09/10 12:24:58;;;;;;;;;;;20.80;99.90;;;;;;5032910;28;20041;-90
2022/09/10 12:27:49;;;;;;;16.90;10.35;;;20.80;99.90;;;;;;5033490;28;19928;-86
2022/09/10 12:30:24;;;;;;;12.57;8.30;;;20.90;99.90;;;;;;5032173;28;20053;-86
2022/09/10 12:32:59;;;;;;;12.40;7.82;;;21.00;99.90;;;;;;5033472;28;20493;-83
2022/09/10 12:35:31;;;;;;;12.45;9.15;;;21.00;99.90;;;;;;5032895;28;20045;-85
2022/09/10 12:38:34;;;;;;;13.85;8.77;;;21.00;99.90;;;;;;5035790;28;20057;-86
2022/09/10 12:41:01;;;;;;;13.25;8.38;;;21.00;99.90;;;;;;5034310;28;20132;-84
2022/09/10 12:43:39;;;;;;;8.93;6.97;;;21.10;99.90;;;;;;5037216;28;20052;-82
2022/09/10 12:46:07;;;;;;;12.05;7.43;;;21.20;99.90;;;;;;5037552;28;20054;-83
2022/09/10 12:48:36;;;;;;;11.45;7.10;;;21.50;99.90;;;;;;5016765;28;20083;-83
2022/09/10 12:51:17;;;;;;;8.40;5.40;;;21.80;99.90;;;;;;5039814;22;20049;-82